Time;durP1;ratioP1;P1;durP2;ratioP2;P2;SDS_P1;SDS_P2;PMS_P1;PMS_P2;Temp;Humidity;BMP_temperature;BMP_pressure;BME280_temperature;BME280_humidity;BME280_pressure;Samples;Min_cycle;Max_cycle;Signal;HPM_P1;HPM_P2
2023/01/26 00:00:47;;;;;;;38.93;28.70;;;3.10;99.90;;;;;;5076191;28;20942;-66
2023/01/26 00:03:14;;;;;;;39.77;28.10;;;3.00;99.90;;;;;;5076259;28;20953;-66
2023/01/26 00:05:40;;;;;;;40.67;28.93;;;3.00;99.90;;;;;;5076390;28;20504;-67
2023/01/26 00:08:08;;;;;;;40.50;28.57;;;2.90;99.90;;;;;;5076404;28;20470;-66
2023/01/26 00:10:36;;;;;;;49.33;30.80;;;2.90;99.90;;;;;;5077814;28;20533;-66
2023/01/26 00:13:03;;;;;;;40.97;27.50;;;2.90;99.90;;;;;;5078311;28;20470;-67
2023/01/26 00:15:31;;;;;;;36.70;27.53;;;2.90;99.90;;;;;;5077033;28;20956;-67
2023/01/26 00:18:00;;;;;;;38.07;26.80;;;2.90;99.90;;;;;;5077004;28;21042;-67
2023/01/26 00:20:27;;;;;;;37.07;27.43;;;2.90;99.90;;;;;;5076277;28;20511;-66
2023/01/26 00:22:53;;;;;;;37.00;28.40;;;3.00;99.90;;;;;;5076033;28;20496;-67
2023/01/26 00:25:20;;;;;;;34.83;25.60;;;3.00;99.90;;;;;;5076223;28;20508;-67
2023/01/26 00:27:47;;;;;;;37.70;27.07;;;3.00;99.90;;;;;;5087563;28;20485;-67
2023/01/26 00:30:14;;;;;;;31.83;24.70;;;3.00;99.90;;;;;;5090443;28;20484;-67
2023/01/26 00:32:40;;;;;;;32.30;23.63;;;3.00;99.90;;;;;;5090477;28;20818;-67
2023/01/26 00:35:09;;;;;;;34.93;24.80;;;3.00;99.90;;;;;;5081789;28;20941;-67
2023/01/26 00:37:36;;;;;;;35.07;25.37;;;3.00;99.90;;;;;;5078399;28;20473;-67
2023/01/26 00:40:03;;;;;;;34.27;25.53;;;2.90;99.90;;;;;;5077384;28;20446;-67
2023/01/26 00:42:29;;;;;;;29.00;23.80;;;2.90;99.90;;;;;;5076039;28;20446;-66
2023/01/26 00:44:56;;;;;;;34.10;24.77;;;3.00;99.90;;;;;;5075909;28;20454;-66
2023/01/26 00:47:22;;;;;;;34.10;25.23;;;3.10;99.90;;;;;;5075874;28;20520;-66
2023/01/26 00:49:49;;;;;;;34.90;25.33;;;3.10;99.90;;;;;;5076252;28;20496;-67
2023/01/26 00:52:17;;;;;;;32.90;23.40;;;3.10;99.90;;;;;;5075637;28;20477;-66
2023/01/26 00:54:44;;;;;;;31.80;24.40;;;3.00;99.90;;;;;;5075468;28;20914;-67
2023/01/26 00:57:11;;;;;;;31.00;22.57;;;3.10;99.90;;;;;;5075551;28;20527;-66
2023/01/26 00:59:38;;;;;;;33.17;25.20;;;3.20;99.90;;;;;;5075512;28;20462;-66
2023/01/26 01:02:04;;;;;;;30.30;23.93;;;3.10;99.90;;;;;;5075667;28;20454;-67
2023/01/26 01:04:31;;;;;;;28.07;21.73;;;3.20;99.90;;;;;;5075498;28;20454;-66
2023/01/26 01:06:58;;;;;;;33.63;24.60;;;3.10;99.90;;;;;;5075212;28;20466;-66
2023/01/26 01:09:26;;;;;;;30.23;23.00;;;3.10;99.90;;;;;;5075278;28;20458;-66
2023/01/26 01:11:53;;;;;;;30.23;23.80;;;3.00;99.90;;;;;;5075124;28;20484;-66
2023/01/26 01:14:20;;;;;;;30.03;22.37;;;2.90;99.90;;;;;;5078440;28;20478;-67
2023/01/26 01:16:46;;;;;;;28.90;20.93;;;2.90;99.90;;;;;;5083949;28;20474;-67
2023/01/26 01:19:15;;;;;;;29.30;22.70;;;2.80;99.90;;;;;;5080675;28;20446;-67
2023/01/26 01:21:42;;;;;;;29.50;23.07;;;2.80;99.90;;;;;;5080682;28;20480;-67
2023/01/26 01:24:09;;;;;;;26.57;20.77;;;2.90;99.90;;;;;;5080555;28;20450;-67
2023/01/26 01:26:38;;;;;;;27.43;21.27;;;2.90;99.90;;;;;;5075116;28;20461;-67
2023/01/26 01:29:06;;;;;;;31.47;22.87;;;2.90;99.90;;;;;;5075187;28;20450;-66
2023/01/26 01:31:32;;;;;;;27.30;22.40;;;2.90;99.90;;;;;;5074671;28;20434;-67
2023/01/26 01:33:59;;;;;;;30.77;22.87;;;2.90;99.90;;;;;;5074255;28;20532;-66
2023/01/26 01:36:26;;;;;;;30.87;23.07;;;2.90;99.90;;;;;;5074219;28;20942;-66
2023/01/26 01:38:52;;;;;;;29.23;22.17;;;2.80;99.90;;;;;;5074363;28;20809;-66
2023/01/26 01:41:22;;;;;;;30.27;22.37;;;2.80;99.90;;;;;;5074777;28;20503;-66
2023/01/26 01:43:50;;;;;;;29.60;24.00;;;2.80;99.90;;;;;;5074260;28;20570;-66
2023/01/26 01:46:24;;;;;;;31.50;24.50;;;2.80;99.90;;;;;;5074592;28;20458;-66
2023/01/26 01:48:54;;;;;;;34.03;24.60;;;2.80;99.90;;;;;;5074676;28;20434;-66
2023/01/26 01:51:29;;;;;;;27.47;22.60;;;2.90;99.90;;;;;;5074631;28;20438;-66
2023/01/26 01:53:59;;;;;;;28.57;22.30;;;2.90;99.90;;;;;;5074701;28;20504;-66
2023/01/26 01:56:28;;;;;;;27.57;22.13;;;2.80;99.90;;;;;;5074110;28;20450;-66
2023/01/26 01:58:59;;;;;;;30.57;23.60;;;2.80;99.90;;;;;;5074132;28;20446;-66
2023/01/26 02:01:26;;;;;;;25.23;20.43;;;2.80;99.90;;;;;;5074263;28;20841;-67
2023/01/26 02:03:57;;;;;;;28.50;21.13;;;2.80;99.90;;;;;;5073792;28;20933;-66
2023/01/26 02:06:29;;;;;;;23.63;19.80;;;2.90;99.90;;;;;;5074093;28;20484;-66
2023/01/26 02:08:57;;;;;;;27.27;21.27;;;2.90;99.90;;;;;;5074025;28;20499;-67
2023/01/26 02:11:28;;;;;;;26.80;20.30;;;2.90;99.90;;;;;;5073863;28;20458;-66
2023/01/26 02:13:58;;;;;;;25.27;20.60;;;2.90;99.90;;;;;;5073503;28;20961;-66
2023/01/26 02:16:25;;;;;;;26.40;21.17;;;3.00;99.90;;;;;;5073819;28;20525;-67
2023/01/26 02:18:52;;;;;;;27.97;21.00;;;3.00;99.90;;;;;;5073680;28;20860;-66
2023/01/26 02:21:20;;;;;;;27.50;20.33;;;3.00;99.90;;;;;;5073718;28;20454;-66
2023/01/26 02:24:08;;;;;;;23.70;19.83;;;3.00;99.90;;;;;;5073626;28;20446;-66
2023/01/26 02:26:37;;;;;;;27.07;20.80;;;2.90;99.90;;;;;;5073501;28;20462;-66
2023/01/26 02:29:07;;;;;;;24.67;19.10;;;2.90;99.90;;;;;;5073666;28;20438;-66
2023/01/26 02:31:34;;;;;;;22.10;18.63;;;2.90;99.90;;;;;;5074417;28;20450;-66
2023/01/26 02:34:01;;;;;;;26.80;20.17;;;2.80;99.90;;;;;;5073549;28;20470;-67
2023/01/26 02:36:30;;;;;;;23.73;19.50;;;2.80;99.90;;;;;;5073528;28;20523;-67
2023/01/26 02:39:06;;;;;;;22.70;18.93;;;2.80;99.90;;;;;;5073414;28;20450;-68
2023/01/26 02:44:19;;;;;;;25.73;18.83;;;2.90;99.90;;;;;;5075724;28;20904;-67
2023/01/26 02:46:46;;;;;;;23.83;18.73;;;2.90;99.90;;;;;;5078205;28;20477;-67
2023/01/26 02:52:11;;;;;;;27.20;20.20;;;3.00;99.90;;;;;;5015561;28;20860;-67
2023/01/26 02:57:22;;;;;;;22.70;17.60;;;2.80;99.90;;;;;;5049781;28;20469;-67
2023/01/26 02:59:50;;;;;;;23.33;18.90;;;2.80;99.90;;;;;;5077411;28;20450;-67
2023/01/26 03:02:17;;;;;;;23.50;19.00;;;2.80;99.90;;;;;;5077570;28;20519;-67
2023/01/26 03:04:44;;;;;;;24.63;20.03;;;2.80;99.90;;;;;;5077223;28;20453;-67
2023/01/26 03:07:10;;;;;;;21.30;18.00;;;2.80;99.90;;;;;;5077111;28;20883;-67
2023/01/26 03:09:37;;;;;;;22.47;18.37;;;2.80;99.90;;;;;;5077373;28;20479;-67
2023/01/26 03:12:04;;;;;;;21.40;16.67;;;2.70;99.90;;;;;;5077269;28;20531;-67
2023/01/26 03:14:31;;;;;;;25.07;20.37;;;2.60;99.90;;;;;;5076864;28;20474;-66
2023/01/26 03:16:59;;;;;;;29.70;21.70;;;2.60;99.90;;;;;;5077146;28;20529;-67
2023/01/26 03:27:42;;;;;;;29.53;20.70;;;2.60;99.90;;;;;;5076548;28;20477;-67
2023/01/26 03:30:10;;;;;;;26.93;18.77;;;2.60;99.90;;;;;;5076866;28;20538;-67
2023/01/26 03:32:38;;;;;;;25.73;20.80;;;2.50;99.90;;;;;;5076849;28;20450;-67
2023/01/26 03:35:06;;;;;;;29.20;21.30;;;2.50;99.90;;;;;;5076268;28;20478;-67
2023/01/26 03:37:35;;;;;;;30.10;22.83;;;2.50;99.90;;;;;;5076637;28;20477;-67
2023/01/26 03:56:31;;;;;;;29.27;22.63;;;2.60;99.90;;;;;;5075853;28;20414;-67
2023/01/26 03:59:06;;;;;;;31.57;22.87;;;2.50;99.90;;;;;;5076265;28;20449;-68
2023/01/26 04:01:34;;;;;;;32.80;23.60;;;2.50;99.90;;;;;;5076308;28;20442;-67
2023/01/26 04:09:33;;;;;;;34.93;25.67;;;2.50;99.90;;;;;;5076146;28;20422;-67
2023/01/26 04:12:00;;;;;;;33.53;24.13;;;2.50;99.90;;;;;;5076198;28;20458;-67
2023/01/26 04:22:43;;;;;;;34.87;24.73;;;2.60;99.90;;;;;;5075967;28;20784;-68
2023/01/26 04:25:12;;;;;;;32.73;24.40;;;2.60;99.90;;;;;;5076091;28;20434;-67
2023/01/26 04:27:39;;;;;;;34.53;25.30;;;2.60;99.90;;;;;;5075219;28;20985;-67
2023/01/26 04:30:07;;;;;;;32.40;23.90;;;2.60;99.90;;;;;;5075764;28;20454;-67
2023/01/26 04:32:34;;;;;;;31.90;23.10;;;2.60;99.90;;;;;;5075763;28;20454;-67
2023/01/26 04:35:02;;;;;;;34.80;23.27;;;2.60;99.90;;;;;;5075637;28;20474;-67
2023/01/26 04:37:29;;;;;;;31.47;23.70;;;2.50;99.90;;;;;;5075537;28;20885;-67
2023/01/26 04:39:55;;;;;;;33.77;25.03;;;2.50;99.90;;;;;;5075170;28;20959;-67
2023/01/26 04:42:23;;;;;;;35.47;23.60;;;2.50;99.90;;;;;;5075564;28;20507;-67
2023/01/26 04:44:50;;;;;;;31.60;23.63;;;2.40;99.90;;;;;;5075325;28;20533;-67
2023/01/26 04:47:17;;;;;;;35.93;23.10;;;2.40;99.90;;;;;;5075383;28;20508;-67
2023/01/26 04:49:44;;;;;;;37.43;25.07;;;2.40;99.90;;;;;;5075309;28;20454;-67
2023/01/26 04:52:12;;;;;;;29.70;22.83;;;2.40;99.90;;;;;;5075053;28;21006;-67
2023/01/26 04:54:39;;;;;;;33.77;24.40;;;2.30;99.90;;;;;;5075257;28;20860;-67
2023/01/26 04:57:06;;;;;;;30.50;22.80;;;2.30;99.90;;;;;;5075226;28;20496;-67
2023/01/26 04:59:33;;;;;;;34.33;23.93;;;2.30;99.90;;;;;;5075492;28;20937;-69
2023/01/26 05:02:00;;;;;;;37.90;25.50;;;2.20;99.90;;;;;;5075347;28;20458;-68
2023/01/26 05:04:26;;;;;;;35.30;24.93;;;2.20;99.90;;;;;;5075242;28;20461;-68
2023/01/26 05:06:53;;;;;;;43.30;24.27;;;2.20;99.90;;;;;;5074652;28;20470;-67
2023/01/26 05:09:21;;;;;;;34.33;24.87;;;2.20;99.90;;;;;;5075076;28;20499;-68
2023/01/26 05:11:48;;;;;;;34.40;23.90;;;2.20;99.90;;;;;;5075160;28;20454;-67
2023/01/26 05:14:15;;;;;;;35.60;24.77;;;2.20;99.90;;;;;;5075118;28;20478;-68
2023/01/26 05:16:41;;;;;;;33.00;24.03;;;2.20;99.90;;;;;;5075829;28;20474;-67
2023/01/26 05:19:08;;;;;;;35.03;25.13;;;2.20;99.90;;;;;;5075407;28;20503;-67
2023/01/26 05:21:35;;;;;;;34.30;23.77;;;2.20;99.90;;;;;;5075332;28;20457;-67
2023/01/26 05:24:01;;;;;;;35.17;24.53;;;2.20;99.90;;;;;;5075301;28;20496;-68
2023/01/26 05:26:29;;;;;;;36.30;25.17;;;2.20;99.90;;;;;;5074929;28;20470;-68
2023/01/26 05:28:56;;;;;;;37.07;24.63;;;2.20;99.90;;;;;;5075322;28;20468;-68
2023/01/26 05:31:23;;;;;;;31.30;23.20;;;2.20;99.90;;;;;;5075324;28;20462;-67
2023/01/26 05:33:49;;;;;;;34.20;23.90;;;2.10;99.90;;;;;;5074892;28;21016;-68
2023/01/26 05:36:16;;;;;;;33.50;24.77;;;2.10;99.90;;;;;;5074843;28;20458;-68
2023/01/26 05:38:43;;;;;;;32.33;24.57;;;2.10;99.90;;;;;;5074930;28;20466;-67
2023/01/26 05:41:10;;;;;;;37.20;26.43;;;2.00;99.90;;;;;;5074910;28;20454;-67
2023/01/26 05:43:37;;;;;;;36.83;25.77;;;2.00;99.90;;;;;;5074811;28;21006;-68
2023/01/26 05:46:04;;;;;;;33.37;24.53;;;2.00;99.90;;;;;;5074470;28;20454;-67
2023/01/26 05:48:31;;;;;;;32.53;24.40;;;2.00;99.90;;;;;;5074192;28;20986;-68
2023/01/26 05:50:58;;;;;;;32.43;25.97;;;2.00;99.90;;;;;;5074532;28;20454;-68
2023/01/26 05:53:24;;;;;;;30.70;23.50;;;2.00;99.90;;;;;;5074485;28;20547;-68
2023/01/26 05:55:51;;;;;;;31.53;23.70;;;2.00;99.90;;;;;;5075206;28;20454;-68
2023/01/26 05:58:18;;;;;;;34.60;24.87;;;2.00;99.90;;;;;;5075746;28;20528;-67
2023/01/26 06:00:46;;;;;;;36.80;24.90;;;2.00;99.90;;;;;;5074960;28;20930;-67
2023/01/26 06:03:12;;;;;;;37.00;25.43;;;2.00;99.90;;;;;;5075937;28;20450;-67
2023/01/26 06:05:39;;;;;;;33.80;24.90;;;2.00;99.90;;;;;;5075363;28;20450;-68
2023/01/26 06:08:06;;;;;;;32.07;23.50;;;2.00;99.90;;;;;;5074898;28;20470;-67
2023/01/26 06:10:33;;;;;;;30.77;23.53;;;2.10;99.90;;;;;;5074130;28;20541;-68
2023/01/26 06:13:00;;;;;;;29.13;23.33;;;2.10;99.90;;;;;;5074396;28;20454;-69
2023/01/26 06:15:27;;;;;;;33.17;23.50;;;2.20;99.90;;;;;;5074288;28;20551;-68
2023/01/26 06:17:55;;;;;;;33.50;24.23;;;2.20;99.90;;;;;;5074923;28;20470;-68
2023/01/26 06:20:21;;;;;;;37.07;24.80;;;2.20;99.90;;;;;;5074139;28;20458;-67
2023/01/26 06:22:48;;;;;;;34.70;24.80;;;2.20;99.90;;;;;;5074198;28;20454;-67
2023/01/26 06:25:15;;;;;;;33.77;24.63;;;2.20;99.90;;;;;;5074158;28;20994;-67
2023/01/26 06:27:42;;;;;;;33.83;23.30;;;2.20;99.90;;;;;;5073713;28;20482;-67
2023/01/26 06:30:11;;;;;;;32.67;25.40;;;2.10;99.90;;;;;;5073584;28;20445;-67
2023/01/26 06:32:38;;;;;;;34.50;25.43;;;2.10;99.90;;;;;;5074424;28;20828;-66
2023/01/26 06:35:07;;;;;;;31.80;24.50;;;2.10;99.90;;;;;;5073216;28;20474;-66
2023/01/26 06:37:34;;;;;;;33.87;24.70;;;2.10;99.90;;;;;;5073332;28;20977;-65
2023/01/26 06:40:01;;;;;;;36.63;26.33;;;2.20;99.90;;;;;;5073722;28;20460;-65
2023/01/26 06:42:28;;;;;;;39.03;25.47;;;2.20;99.90;;;;;;5073773;28;20507;-64
2023/01/26 06:44:56;;;;;;;30.97;22.70;;;2.30;99.90;;;;;;5073702;28;20458;-64
2023/01/26 06:47:22;;;;;;;36.70;25.30;;;2.30;99.90;;;;;;5073544;28;20477;-64
2023/01/26 06:49:49;;;;;;;35.00;25.50;;;2.30;99.90;;;;;;5073966;28;20457;-63
2023/01/26 06:52:25;;;;;;;33.30;24.00;;;2.30;99.90;;;;;;5073312;28;20972;-64
2023/01/26 06:54:51;;;;;;;31.03;23.33;;;2.30;99.90;;;;;;5073490;28;20470;-64
2023/01/26 06:57:18;;;;;;;30.97;23.30;;;2.40;99.90;;;;;;5073398;28;20539;-66
2023/01/26 06:59:45;;;;;;;29.20;22.47;;;2.40;99.90;;;;;;5073511;28;20454;-65
2023/01/26 07:02:17;;;;;;;32.33;23.03;;;2.40;99.90;;;;;;5073240;28;20999;-65
2023/01/26 07:04:44;;;;;;;37.60;23.60;;;2.30;99.90;;;;;;5073422;28;20430;-65
2023/01/26 07:07:11;;;;;;;26.67;20.50;;;2.30;99.90;;;;;;5073157;28;20930;-65
2023/01/26 07:09:39;;;;;;;30.80;21.47;;;2.10;99.90;;;;;;5073511;28;20799;-65
2023/01/26 07:12:06;;;;;;;30.47;22.93;;;2.10;99.90;;;;;;5073179;28;20454;-65
2023/01/26 07:14:33;;;;;;;28.60;22.20;;;2.00;99.90;;;;;;5073240;28;20458;-65
2023/01/26 07:17:00;;;;;;;32.50;22.80;;;2.00;99.90;;;;;;5073248;28;20908;-64
2023/01/26 07:19:29;;;;;;;33.20;23.00;;;2.00;99.90;;;;;;5073291;28;20458;-65
2023/01/26 07:21:55;;;;;;;31.47;23.67;;;2.00;99.90;;;;;;5073392;28;20544;-65
2023/01/26 07:24:22;;;;;;;32.60;23.90;;;2.00;99.90;;;;;;5073477;28;20477;-65
2023/01/26 07:26:50;;;;;;;31.80;23.30;;;2.10;99.90;;;;;;5073111;28;20481;-65
2023/01/26 07:29:17;;;;;;;25.70;21.40;;;2.10;99.90;;;;;;5073317;28;20450;-65
2023/01/26 07:31:43;;;;;;;27.30;21.23;;;2.20;99.90;;;;;;5075707;28;20552;-65
2023/01/26 07:34:11;;;;;;;30.10;22.13;;;2.20;99.90;;;;;;5077336;28;20536;-66
2023/01/26 07:36:37;;;;;;;29.83;21.40;;;2.10;99.90;;;;;;5077117;28;20450;-66
2023/01/26 07:39:05;;;;;;;29.70;21.47;;;2.10;99.90;;;;;;5077379;28;20515;-66
2023/01/26 07:41:31;;;;;;;27.33;20.90;;;2.10;99.90;;;;;;5076654;28;20487;-66
2023/01/26 07:44:00;;;;;;;31.90;22.50;;;2.10;99.90;;;;;;5077015;28;20457;-66
2023/01/26 07:46:26;;;;;;;30.80;22.00;;;2.10;99.90;;;;;;5076396;28;20914;-66
2023/01/26 07:48:53;;;;;;;33.33;22.57;;;2.20;99.90;;;;;;5076406;28;21063;-66
2023/01/26 07:51:20;;;;;;;32.80;22.73;;;2.10;99.90;;;;;;5076525;28;20519;-66
2023/01/26 07:53:48;;;;;;;33.20;23.60;;;2.10;99.90;;;;;;5076720;28;20537;-66
2023/01/26 07:56:19;;;;;;;32.00;24.90;;;2.10;99.90;;;;;;5076533;28;20556;-66
2023/01/26 07:58:50;;;;;;;30.43;21.97;;;2.10;99.90;;;;;;5077644;28;20547;-66
2023/01/26 08:01:18;;;;;;;33.40;22.77;;;2.10;99.90;;;;;;5076896;28;20438;-66
2023/01/26 08:03:45;;;;;;;28.07;22.30;;;2.20;99.90;;;;;;5076240;28;20458;-66
2023/01/26 08:06:13;;;;;;;24.47;18.87;;;2.30;99.90;;;;;;5088437;28;20548;-65
2023/01/26 08:08:40;;;;;;;25.77;19.30;;;2.30;99.90;;;;;;5089125;28;20462;-65
2023/01/26 08:11:08;;;;;;;26.83;20.50;;;2.30;99.90;;;;;;5090253;28;20474;-65
2023/01/26 08:13:35;;;;;;;30.00;20.13;;;2.30;99.90;;;;;;5089412;28;20802;-65
2023/01/26 08:16:02;;;;;;;23.37;18.50;;;2.30;99.90;;;;;;5079119;28;20474;-65
2023/01/26 08:18:31;;;;;;;25.47;18.90;;;2.30;99.90;;;;;;5075782;28;20470;-65
2023/01/26 08:20:58;;;;;;;23.40;18.47;;;2.30;99.90;;;;;;5076166;28;20455;-65
2023/01/26 08:23:24;;;;;;;24.23;18.20;;;2.30;99.90;;;;;;5076515;28;20810;-65
2023/01/26 08:25:51;;;;;;;24.23;17.80;;;2.40;99.90;;;;;;5076987;28;20495;-65
2023/01/26 08:28:18;;;;;;;22.80;17.70;;;2.30;99.90;;;;;;5075965;28;20486;-65
2023/01/26 08:30:44;;;;;;;28.50;20.27;;;2.40;99.90;;;;;;5075908;28;20450;-65
2023/01/26 08:33:11;;;;;;;25.30;19.23;;;2.30;99.90;;;;;;5075867;28;20860;-65
2023/01/26 08:35:39;;;;;;;26.33;20.17;;;2.20;99.90;;;;;;5075511;28;21050;-65
2023/01/26 08:38:06;;;;;;;25.77;20.70;;;2.10;99.90;;;;;;5075776;28;21031;-65
2023/01/26 08:40:32;;;;;;;27.97;19.27;;;2.20;99.90;;;;;;5075669;28;20869;-65
2023/01/26 08:43:03;;;;;;;29.50;19.90;;;2.20;99.90;;;;;;5075054;28;20960;-65
2023/01/26 08:45:30;;;;;;;26.07;18.40;;;2.20;99.90;;;;;;5075510;28;20894;-65
2023/01/26 08:47:56;;;;;;;26.33;19.60;;;2.20;99.90;;;;;;5075554;28;20532;-65
2023/01/26 08:50:24;;;;;;;27.60;20.53;;;2.30;99.90;;;;;;5075343;28;20454;-65
2023/01/26 08:52:54;;;;;;;26.80;20.43;;;2.20;99.90;;;;;;5075375;28;20450;-65
2023/01/26 08:55:21;;;;;;;26.30;18.63;;;2.10;99.90;;;;;;5075242;28;20458;-65
2023/01/26 08:57:53;;;;;;;27.00;20.37;;;2.20;99.90;;;;;;5075719;28;20980;-65
2023/01/26 09:00:21;;;;;;;27.37;21.47;;;2.20;99.90;;;;;;5075511;28;20529;-65
2023/01/26 09:02:48;;;;;;;26.87;19.67;;;2.20;99.90;;;;;;5075107;28;20842;-65
2023/01/26 09:05:15;;;;;;;32.37;21.80;;;2.20;99.90;;;;;;5075314;28;20529;-66
2023/01/26 09:07:43;;;;;;;31.37;21.53;;;2.20;99.90;;;;;;5075377;28;20872;-66
2023/01/26 09:10:11;;;;;;;27.93;21.13;;;2.20;99.90;;;;;;5075145;28;20464;-65
2023/01/26 09:12:38;;;;;;;25.97;19.77;;;2.20;99.90;;;;;;5075114;28;20862;-65
2023/01/26 09:15:06;;;;;;;23.83;17.93;;;2.30;99.90;;;;;;5074966;28;20469;-66
2023/01/26 09:17:33;;;;;;;27.60;18.77;;;2.40;99.90;;;;;;5075906;28;20474;-66
2023/01/26 09:20:00;;;;;;;30.50;20.93;;;2.40;99.90;;;;;;5075142;28;20457;-67
2023/01/26 09:22:26;;;;;;;25.67;19.43;;;2.40;99.90;;;;;;5075098;28;20453;-67
2023/01/26 09:24:53;;;;;;;25.90;19.90;;;2.30;99.90;;;;;;5074849;28;20447;-65
2023/01/26 09:27:21;;;;;;;24.00;18.53;;;2.20;99.90;;;;;;5074374;28;20493;-65
2023/01/26 09:29:48;;;;;;;23.00;18.10;;;2.20;99.90;;;;;;5074746;28;20453;-65
2023/01/26 09:32:14;;;;;;;26.07;18.27;;;2.30;99.90;;;;;;5074613;28;20480;-65
2023/01/26 09:34:41;;;;;;;24.03;17.90;;;2.30;99.90;;;;;;5074618;28;20567;-65
2023/01/26 09:37:08;;;;;;;21.93;17.30;;;2.20;99.90;;;;;;5074516;28;20470;-65
2023/01/26 09:39:35;;;;;;;23.67;17.07;;;2.20;99.90;;;;;;5074946;28;20454;-66
2023/01/26 09:42:26;;;;;;;23.80;16.60;;;2.30;99.90;;;;;;5074789;28;20545;-65
2023/01/26 09:45:01;;;;;;;21.10;16.50;;;2.30;99.90;;;;;;5074382;28;20454;-65
2023/01/26 09:47:35;;;;;;;21.80;16.40;;;2.20;99.90;;;;;;5074148;28;20473;-66
2023/01/26 09:50:08;;;;;;;22.47;16.87;;;2.20;99.90;;;;;;5074657;28;20962;-65
2023/01/26 09:52:39;;;;;;;22.70;17.17;;;2.20;99.90;;;;;;5074471;28;20434;-65
2023/01/26 09:55:12;;;;;;;18.70;15.47;;;2.10;99.90;;;;;;5074310;28;20853;-65
2023/01/26 09:57:46;;;;;;;25.40;16.00;;;1.90;99.90;;;;;;5074256;28;20974;-65
2023/01/26 10:00:22;;;;;;;22.03;16.30;;;1.80;99.90;;;;;;5074186;28;20541;-67
2023/01/26 10:03:03;;;;;;;20.20;15.87;;;1.80;99.90;;;;;;5075032;28;20438;-67
2023/01/26 10:05:38;;;;;;;22.53;16.30;;;1.70;99.90;;;;;;5073922;28;20924;-67
2023/01/26 10:08:11;;;;;;;21.50;16.23;;;1.70;99.90;;;;;;5074327;28;20477;-67
2023/01/26 10:10:42;;;;;;;21.70;16.27;;;1.80;99.90;;;;;;5075401;28;20445;-67
2023/01/26 10:13:12;;;;;;;20.50;14.67;;;1.90;99.90;;;;;;5075610;28;20488;-67
2023/01/26 10:15:43;;;;;;;18.97;15.33;;;1.90;99.90;;;;;;5075644;28;20462;-67
2023/01/26 10:18:16;;;;;;;19.80;14.00;;;1.90;99.90;;;;;;5074038;28;20531;-67
2023/01/26 10:20:47;;;;;;;17.70;14.50;;;1.80;99.90;;;;;;5074142;28;20439;-67
2023/01/26 10:23:16;;;;;;;18.10;14.27;;;1.80;99.90;;;;;;5073969;28;20445;-67
2023/01/26 10:25:45;;;;;;;15.30;12.90;;;1.90;99.90;;;;;;5073751;28;20446;-69
2023/01/26 10:28:14;;;;;;;18.93;15.13;;;1.90;99.90;;;;;;5073429;28;21088;-66
2023/01/26 10:30:47;;;;;;;18.07;15.20;;;2.00;99.90;;;;;;5073959;28;20454;-66
2023/01/26 10:33:17;;;;;;;19.40;14.87;;;2.10;99.90;;;;;;5074182;28;20445;-66
2023/01/26 10:35:44;;;;;;;19.60;15.17;;;2.10;99.90;;;;;;5088493;28;20462;-67
2023/01/26 10:38:41;;;;;;;18.00;14.27;;;2.20;99.90;;;;;;5092209;28;20474;-66
2023/01/26 10:41:23;;;;;;;16.20;12.57;;;2.30;99.90;;;;;;5091240;28;20442;-66
2023/01/26 10:43:52;;;;;;;19.00;13.40;;;2.20;99.90;;;;;;5074783;28;20430;-66
2023/01/26 10:46:32;;;;;;;17.07;13.13;;;2.30;99.90;;;;;;5074343;28;20785;-66
2023/01/26 10:49:01;;;;;;;18.40;14.73;;;2.30;99.90;;;;;;5074128;28;20429;-67
2023/01/26 10:51:30;;;;;;;18.43;14.03;;;2.30;99.90;;;;;;5073504;28;20446;-67
2023/01/26 10:54:22;;;;;;;16.60;12.90;;;2.30;99.90;;;;;;5075798;28;20446;-67
2023/01/26 10:56:51;;;;;;;16.13;13.00;;;2.40;99.90;;;;;;5073644;28;20490;-67
2023/01/26 10:59:33;;;;;;;16.00;13.10;;;2.30;99.90;;;;;;5073837;28;20454;-67
2023/01/26 11:02:19;;;;;;;18.17;14.50;;;2.20;99.90;;;;;;5073430;28;20438;-67
2023/01/26 11:05:01;;;;;;;18.47;13.70;;;2.10;99.90;;;;;;5075471;28;20790;-67
2023/01/26 11:07:33;;;;;;;16.07;13.50;;;2.10;99.90;;;;;;5078283;28;20474;-66
2023/01/26 11:10:21;;;;;;;18.10;14.00;;;2.10;99.90;;;;;;5077195;28;20829;-66
2023/01/26 11:12:48;;;;;;;17.10;14.10;;;2.20;99.90;;;;;;5076965;28;20445;-66
2023/01/26 11:15:19;;;;;;;16.67;12.43;;;2.20;99.90;;;;;;5076910;28;20454;-66
2023/01/26 11:17:57;;;;;;;16.50;13.57;;;2.20;99.90;;;;;;5077073;28;20492;-66
2023/01/26 11:20:57;;;;;;;16.40;13.17;;;2.30;99.90;;;;;;5077102;28;20441;-68
2023/01/26 11:23:38;;;;;;;17.73;13.43;;;2.40;99.90;;;;;;5014963;28;20524;-67
2023/01/26 11:26:38;;;;;;;17.97;13.93;;;2.40;99.90;;;;;;5069574;28;20450;-67
2023/01/26 11:29:27;;;;;;;18.03;13.20;;;2.30;99.90;;;;;;5076864;28;20426;-67
2023/01/26 11:32:00;;;;;;;18.70;14.87;;;2.40;99.90;;;;;;5076776;28;20848;-67
2023/01/26 11:34:39;;;;;;;18.33;14.13;;;2.30;99.90;;;;;;5076835;28;20438;-67
2023/01/26 11:37:33;;;;;;;19.03;13.60;;;2.30;99.90;;;;;;5076596;28;20539;-67
2023/01/26 11:40:13;;;;;;;16.80;13.43;;;2.20;99.90;;;;;;5076683;28;20839;-67
2023/01/26 11:42:50;;;;;;;18.13;13.40;;;2.20;99.90;;;;;;5076580;28;20438;-67
2023/01/26 11:45:25;;;;;;;17.43;13.50;;;2.20;99.90;;;;;;5076650;28;20434;-66
2023/01/26 11:48:13;;;;;;;15.80;13.07;;;2.20;99.90;;;;;;5076427;28;20499;-66
2023/01/26 11:50:45;;;;;;;16.13;13.47;;;2.20;99.90;;;;;;5076174;28;20438;-66
2023/01/26 11:53:27;;;;;;;17.43;14.57;;;2.20;99.90;;;;;;5076403;28;20510;-67
2023/01/26 11:56:07;;;;;;;19.67;14.70;;;2.20;99.90;;;;;;5076583;28;20454;-66
2023/01/26 11:58:39;;;;;;;22.10;16.17;;;2.30;99.90;;;;;;5076601;28;20469;-66
2023/01/26 12:01:10;;;;;;;23.50;18.00;;;2.40;99.90;;;;;;5076280;28;20435;-66
2023/01/26 12:03:42;;;;;;;22.33;18.10;;;2.40;99.90;;;;;;5076375;28;20488;-66
2023/01/26 12:06:17;;;;;;;24.20;19.00;;;2.50;99.90;;;;;;5075807;28;20889;-66
2023/01/26 12:08:50;;;;;;;25.40;19.67;;;2.50;99.90;;;;;;5076092;28;20473;-66
2023/01/26 12:11:22;;;;;;;23.53;17.37;;;2.50;99.90;;;;;;5076546;28;20492;-66
2023/01/26 12:13:56;;;;;;;22.97;17.77;;;2.60;99.90;;;;;;5076231;28;20442;-65
2023/01/26 12:16:29;;;;;;;26.17;18.50;;;2.50;99.90;;;;;;5075621;28;20492;-66
2023/01/26 12:19:05;;;;;;;25.00;18.30;;;2.50;99.90;;;;;;5076262;28;20431;-66
2023/01/26 12:21:37;;;;;;;29.40;21.27;;;2.60;99.90;;;;;;5076308;28;20438;-67
2023/01/26 12:24:05;;;;;;;26.20;18.10;;;2.60;99.90;;;;;;5075936;28;20435;-67
2023/01/26 12:26:36;;;;;;;27.60;19.37;;;2.50;99.90;;;;;;5075605;28;20465;-66
2023/01/26 12:29:11;;;;;;;26.70;18.70;;;2.50;99.90;;;;;;5075933;28;20465;-66
2023/01/26 12:31:45;;;;;;;29.63;18.70;;;2.40;99.90;;;;;;5075860;28;20433;-66
2023/01/26 12:34:13;;;;;;;26.40;19.90;;;2.30;99.90;;;;;;5075802;28;20438;-66
2023/01/26 12:36:49;;;;;;;24.40;18.03;;;2.20;99.90;;;;;;5075738;28;20474;-66
2023/01/26 12:39:26;;;;;;;25.83;18.40;;;2.30;99.90;;;;;;5075728;28;20438;-66
2023/01/26 12:42:08;;;;;;;23.83;18.20;;;2.30;99.90;;;;;;5075793;28;20435;-66
2023/01/26 12:44:38;;;;;;;23.57;18.87;;;2.30;99.90;;;;;;5075527;28;20435;-66
2023/01/26 12:47:10;;;;;;;22.87;17.00;;;2.30;99.90;;;;;;5075708;28;20527;-65
2023/01/26 12:49:42;;;;;;;25.03;17.53;;;2.30;99.90;;;;;;5075815;28;20435;-65
2023/01/26 12:52:17;;;;;;;24.50;19.23;;;2.40;99.90;;;;;;5075746;28;20775;-65
2023/01/26 12:54:50;;;;;;;29.83;18.53;;;2.30;99.90;;;;;;5075551;28;20434;-65
2023/01/26 12:57:21;;;;;;;25.37;18.43;;;2.20;99.90;;;;;;5075943;28;20485;-65
2023/01/26 12:59:48;;;;;;;24.43;17.70;;;2.10;99.90;;;;;;5075532;28;20438;-66
2023/01/26 13:02:25;;;;;;;24.23;17.27;;;2.20;99.90;;;;;;5075098;28;20446;-65
2023/01/26 13:04:52;;;;;;;24.53;19.27;;;2.20;99.90;;;;;;5075379;28;20492;-65
2023/01/26 13:07:35;;;;;;;24.07;18.40;;;2.20;99.90;;;;;;5075051;28;20470;-66
2023/01/26 13:10:19;;;;;;;23.90;17.57;;;2.20;99.90;;;;;;5075475;28;20445;-66
2023/01/26 13:12:47;;;;;;;22.30;16.70;;;2.30;99.90;;;;;;5075108;28;20446;-65
2023/01/26 13:15:16;;;;;;;19.90;15.80;;;2.40;99.90;;;;;;5075125;28;20461;-66
2023/01/26 13:17:52;;;;;;;23.23;16.90;;;2.50;99.90;;;;;;5075043;28;20886;-66
2023/01/26 13:20:49;;;;;;;21.00;17.10;;;2.60;99.90;;;;;;5075181;28;20948;-66
2023/01/26 13:23:51;;;;;;;21.00;16.70;;;2.70;99.90;;;;;;5075000;28;20525;-66
2023/01/26 13:26:20;;;;;;;23.13;17.77;;;2.70;99.90;;;;;;5074821;28;20483;-66
2023/01/26 13:28:48;;;;;;;25.20;19.40;;;2.50;99.90;;;;;;5073903;28;20474;-66
2023/01/26 13:31:30;;;;;;;26.13;19.97;;;2.30;99.90;;;;;;5074891;28;20454;-66
2023/01/26 13:34:00;;;;;;;22.53;18.10;;;2.30;99.90;;;;;;5074724;28;20438;-66
2023/01/26 13:36:30;;;;;;;24.47;16.90;;;2.40;99.90;;;;;;5074532;28;20477;-67